Time;durP1;ratioP1;P1;durP2;ratioP2;P2;SDS_P1;SDS_P2;PMS_P1;PMS_P2;Temp;Humidity;BMP_temperature;BMP_pressure;BME280_temperature;BME280_humidity;BME280_pressure;Samples;Min_cycle;Max_cycle;Signal;HPM_P1;HPM_P2
2022/10/20 00:01:58;;;;;;;10.95;7.20;;;8.70;99.90;;;;;;5107512;28;20454;-76
2022/10/20 00:04:23;;;;;;;15.10;7.77;;;8.70;99.90;;;;;;5113333;27;20400;-76
2022/10/20 00:06:49;;;;;;;11.18;7.60;;;8.70;99.90;;;;;;5106214;28;20423;-75
2022/10/20 00:09:14;;;;;;;15.40;7.80;;;8.60;99.90;;;;;;5107252;28;20415;-76
2022/10/20 00:11:41;;;;;;;11.05;7.80;;;8.70;99.90;;;;;;5107446;28;20533;-76
2022/10/20 00:14:06;;;;;;;12.85;7.82;;;8.70;99.90;;;;;;5106964;28;20401;-76
2022/10/20 00:16:36;;;;;;;13.32;6.80;;;8.70;99.90;;;;;;5106023;28;20819;-76
2022/10/20 00:19:02;;;;;;;12.07;6.82;;;8.60;99.90;;;;;;5106901;28;20420;-76
2022/10/20 00:21:28;;;;;;;11.52;6.13;;;8.60;99.90;;;;;;5105877;28;20766;-76
2022/10/20 00:23:53;;;;;;;9.85;5.85;;;8.60;99.90;;;;;;5107512;28;20396;-76
2022/10/20 00:26:22;;;;;;;10.83;5.20;;;8.60;99.90;;;;;;5113799;28;20395;-76
2022/10/20 00:28:48;;;;;;;12.88;5.68;;;8.60;99.90;;;;;;5107380;27;20494;-76
2022/10/20 00:31:15;;;;;;;9.30;5.20;;;8.60;99.90;;;;;;5105913;28;20415;-76
2022/10/20 00:33:41;;;;;;;10.27;5.25;;;8.60;99.90;;;;;;5108173;28;21027;-76
2022/10/20 00:36:10;;;;;;;10.50;5.07;;;8.60;99.90;;;;;;5115822;27;20436;-76
2022/10/20 00:38:35;;;;;;;8.63;5.28;;;8.60;99.90;;;;;;5098951;27;20758;-76
2022/10/20 00:41:02;;;;;;;11.60;6.32;;;8.60;99.90;;;;;;5104290;28;20412;-76
2022/10/20 00:43:51;;;;;;;15.70;7.97;;;8.50;99.90;;;;;;5110983;28;20488;-76
2022/10/20 00:46:20;;;;;;;13.65;9.43;;;8.50;99.90;;;;;;5112379;27;20415;-76
2022/10/20 00:48:58;;;;;;;15.13;10.02;;;8.50;99.90;;;;;;5112379;28;20746;-76
2022/10/20 00:51:26;;;;;;;15.73;10.00;;;8.50;99.90;;;;;;5112097;28;20402;-76
2022/10/20 00:54:01;;;;;;;12.30;9.13;;;8.50;99.90;;;;;;5110910;28;20518;-76
2022/10/20 00:56:27;;;;;;;11.60;6.93;;;8.40;99.90;;;;;;5112122;28;20420;-76
2022/10/20 00:58:54;;;;;;;12.85;7.30;;;8.40;99.90;;;;;;5111918;28;20427;-76
2022/10/20 01:01:19;;;;;;;16.75;6.43;;;8.40;99.90;;;;;;5112088;28;20388;-76
2022/10/20 01:03:49;;;;;;;11.95;6.18;;;8.40;99.90;;;;;;5112939;28;20468;-76
2022/10/20 01:06:16;;;;;;;11.18;5.70;;;8.40;99.90;;;;;;5110239;28;20396;-76
2022/10/20 01:08:42;;;;;;;11.60;6.20;;;8.40;99.90;;;;;;5110691;28;20408;-76
2022/10/20 01:11:41;;;;;;;11.18;5.93;;;8.30;99.90;;;;;;5110813;28;20449;-76
2022/10/20 01:14:31;;;;;;;12.52;5.97;;;8.30;99.90;;;;;;5110183;28;20404;-76
2022/10/20 01:17:11;;;;;;;12.20;4.93;;;8.30;99.90;;;;;;5103030;28;20413;-76
2022/10/20 01:20:01;;;;;;;10.55;5.13;;;8.30;99.90;;;;;;5102496;28;20428;-76
2022/10/20 01:22:30;;;;;;;10.95;5.13;;;8.30;99.90;;;;;;5111438;27;20415;-76
2022/10/20 01:25:20;;;;;;;10.45;5.15;;;8.30;99.90;;;;;;5119792;27;20822;-76
2022/10/20 01:27:49;;;;;;;13.27;5.10;;;8.20;99.90;;;;;;5110121;28;20500;-76
2022/10/20 01:30:21;;;;;;;10.67;4.60;;;8.20;99.90;;;;;;5111700;28;20441;-76
2022/10/20 01:33:10;;;;;;;9.80;4.70;;;8.20;99.90;;;;;;5121064;27;20862;-76
2022/10/20 01:35:51;;;;;;;8.13;4.57;;;8.20;99.90;;;;;;5109710;28;20424;-75
2022/10/20 01:38:29;;;;;;;9.82;4.43;;;8.20;99.90;;;;;;5110967;28;20465;-76
2022/10/20 01:41:01;;;;;;;11.07;4.35;;;8.20;99.90;;;;;;5120174;27;20416;-76
2022/10/20 01:43:31;;;;;;;10.13;4.57;;;8.10;99.90;;;;;;5109566;28;20440;-76
2022/10/20 01:45:58;;;;;;;8.65;4.10;;;8.10;99.90;;;;;;5111667;27;20475;-76
2022/10/20 01:48:30;;;;;;;9.65;4.20;;;8.10;99.90;;;;;;5111092;28;20428;-75
2022/10/20 01:50:56;;;;;;;9.15;4.45;;;8.00;99.90;;;;;;5112186;28;21876;-75
2022/10/20 01:53:21;;;;;;;8.05;4.07;;;8.00;99.90;;;;;;5110675;27;20413;-76
2022/10/20 01:55:56;;;;;;;7.57;4.70;;;8.00;99.90;;;;;;5110242;28;20415;-76
2022/10/20 01:58:27;;;;;;;9.68;4.18;;;8.00;99.90;;;;;;5097758;28;20397;-76
2022/10/20 02:00:59;;;;;;;7.63;4.20;;;8.00;99.90;;;;;;5109596;28;20431;-76
2022/10/20 02:03:37;;;;;;;8.68;4.45;;;8.00;99.90;;;;;;5098033;27;20404;-77
2022/10/20 02:06:33;;;;;;;7.78;4.40;;;8.00;99.90;;;;;;5113512;27;20496;-77
2022/10/20 02:09:12;;;;;;;8.40;4.03;;;8.00;99.90;;;;;;5110017;28;20914;-77
2022/10/20 02:12:19;;;;;;;8.73;4.38;;;8.00;99.90;;;;;;5099412;28;20495;-77
2022/10/20 02:14:46;;;;;;;8.55;4.18;;;8.00;99.90;;;;;;5092353;28;20420;-77
2022/10/20 02:17:15;;;;;;;7.43;4.13;;;7.90;99.90;;;;;;5109433;28;20404;-77
2022/10/20 02:19:43;;;;;;;6.43;4.10;;;7.90;99.90;;;;;;5109173;28;20439;-77
2022/10/20 02:22:11;;;;;;;8.77;4.40;;;7.90;99.90;;;;;;5109985;28;21104;-77
2022/10/20 02:24:39;;;;;;;8.05;4.53;;;7.90;99.90;;;;;;5110619;28;20533;-76
2022/10/20 02:27:13;;;;;;;9.68;4.38;;;7.90;99.90;;;;;;5109313;28;20488;-77
2022/10/20 02:29:43;;;;;;;7.95;4.18;;;7.90;99.90;;;;;;5110241;28;20396;-76
2022/10/20 02:32:11;;;;;;;10.00;4.82;;;7.90;99.90;;;;;;5109865;28;20403;-77
2022/10/20 02:34:37;;;;;;;8.90;4.50;;;7.80;99.90;;;;;;5109287;28;20408;-77
2022/10/20 02:37:03;;;;;;;8.13;4.45;;;7.80;99.90;;;;;;5109708;28;20416;-76
2022/10/20 02:39:28;;;;;;;7.97;4.50;;;7.80;99.90;;;;;;5109820;28;20460;-77
2022/10/20 02:41:54;;;;;;;8.75;4.72;;;7.80;99.90;;;;;;5108449;28;20416;-77
2022/10/20 02:44:19;;;;;;;9.30;4.77;;;7.70;99.90;;;;;;5109912;28;20490;-77
2022/10/20 02:46:45;;;;;;;8.70;4.93;;;7.70;99.90;;;;;;5109534;28;20409;-77
2022/10/20 02:49:11;;;;;;;9.20;4.90;;;7.70;99.90;;;;;;5108995;28;20411;-76
2022/10/20 02:51:36;;;;;;;9.50;4.60;;;7.70;99.90;;;;;;5109790;28;21034;-77
2022/10/20 02:54:02;;;;;;;9.17;4.70;;;7.60;99.90;;;;;;5109891;28;20400;-76
2022/10/20 02:56:27;;;;;;;8.53;4.50;;;7.60;99.90;;;;;;5108808;28;20400;-76
2022/10/20 02:58:53;;;;;;;11.90;4.78;;;7.60;99.90;;;;;;5109127;28;20765;-77
2022/10/20 03:01:19;;;;;;;9.20;4.87;;;7.60;99.90;;;;;;5109732;28;20404;-77
2022/10/20 03:03:44;;;;;;;9.80;5.30;;;7.50;99.90;;;;;;5109018;28;20404;-76
2022/10/20 03:06:12;;;;;;;10.03;5.47;;;7.50;99.90;;;;;;5108298;27;20412;-77
2022/10/20 03:08:38;;;;;;;7.93;4.88;;;7.50;99.90;;;;;;5091373;28;20443;-76
2022/10/20 03:11:04;;;;;;;9.68;5.53;;;7.50;99.90;;;;;;5109283;28;20427;-77
2022/10/20 03:13:30;;;;;;;9.88;5.53;;;7.40;99.90;;;;;;5111078;27;20430;-77
2022/10/20 03:15:56;;;;;;;10.32;5.70;;;7.50;99.90;;;;;;5109536;28;20393;-76
2022/10/20 03:18:21;;;;;;;11.27;5.87;;;7.40;99.90;;;;;;5107845;27;20407;-77
2022/10/20 03:20:50;;;;;;;10.95;5.72;;;7.40;99.90;;;;;;5109015;28;20481;-76
2022/10/20 03:23:16;;;;;;;9.48;5.47;;;7.40;99.90;;;;;;5107984;28;20490;-76
2022/10/20 03:25:41;;;;;;;8.98;5.57;;;7.40;99.90;;;;;;5106821;28;20488;-76
2022/10/20 03:28:07;;;;;;;10.50;5.97;;;7.40;99.90;;;;;;5107607;28;20440;-76
2022/10/20 03:30:32;;;;;;;8.80;5.30;;;7.40;99.90;;;;;;5112022;27;20415;-76
2022/10/20 03:32:58;;;;;;;11.80;6.05;;;7.40;99.90;;;;;;5108264;28;20408;-76
2022/10/20 03:35:24;;;;;;;13.63;6.20;;;7.40;99.90;;;;;;5106513;28;20392;-76
2022/10/20 03:37:49;;;;;;;9.77;5.55;;;7.40;99.90;;;;;;5108343;28;20909;-77
2022/10/20 03:40:15;;;;;;;11.60;6.10;;;7.40;99.90;;;;;;5108461;28;20424;-76
2022/10/20 03:42:40;;;;;;;8.73;5.65;;;7.30;99.90;;;;;;5109433;28;20904;-76
2022/10/20 03:45:07;;;;;;;14.30;6.50;;;7.30;99.90;;;;;;5108495;28;20404;-76
2022/10/20 03:47:33;;;;;;;10.88;6.60;;;7.30;99.90;;;;;;5108914;28;20924;-76
2022/10/20 03:49:59;;;;;;;11.25;6.57;;;7.30;99.90;;;;;;5108889;28;20392;-76
2022/10/20 03:52:24;;;;;;;9.90;6.53;;;7.30;99.90;;;;;;5109765;27;20941;-76
2022/10/20 03:54:50;;;;;;;12.00;6.80;;;7.30;99.90;;;;;;5112039;27;20397;-76
2022/10/20 03:57:15;;;;;;;10.23;6.80;;;7.30;99.90;;;;;;5109017;28;20398;-76
2022/10/20 03:59:41;;;;;;;13.20;6.70;;;7.20;99.90;;;;;;5108668;28;20432;-76
2022/10/20 04:02:07;;;;;;;12.33;7.10;;;7.20;99.90;;;;;;5108960;28;20403;-76
2022/10/20 04:04:32;;;;;;;9.90;6.80;;;7.30;99.90;;;;;;5108094;28;20400;-76
2022/10/20 04:06:58;;;;;;;15.30;7.53;;;7.30;99.90;;;;;;5107929;28;20419;-76
2022/10/20 04:09:23;;;;;;;10.90;7.10;;;7.20;99.90;;;;;;5107543;28;20575;-76
2022/10/20 04:11:49;;;;;;;12.57;7.90;;;7.30;99.90;;;;;;5108832;28;20453;-76
2022/10/20 04:14:15;;;;;;;13.13;7.93;;;7.20;99.90;;;;;;5108098;28;20400;-76
2022/10/20 04:16:40;;;;;;;14.47;8.70;;;7.20;99.90;;;;;;5108633;28;20420;-77
2022/10/20 04:19:06;;;;;;;13.37;7.90;;;7.20;99.90;;;;;;5108747;28;20457;-76
2022/10/20 04:21:32;;;;;;;16.20;8.77;;;7.20;99.90;;;;;;5107062;28;20546;-76
2022/10/20 04:23:57;;;;;;;16.33;8.70;;;7.20;99.90;;;;;;5107299;28;20426;-76
2022/10/20 04:26:23;;;;;;;13.43;8.27;;;7.20;99.90;;;;;;5106680;28;20409;-76
2022/10/20 04:28:49;;;;;;;14.57;8.50;;;7.20;99.90;;;;;;5107296;28;20781;-76
2022/10/20 04:31:14;;;;;;;15.57;8.80;;;7.10;99.90;;;;;;5108425;28;20811;-76
2022/10/20 04:33:40;;;;;;;14.13;8.32;;;7.20;99.90;;;;;;5108236;28;20412;-76
2022/10/20 04:36:10;;;;;;;16.23;8.43;;;7.10;99.90;;;;;;5107085;28;20408;-77
2022/10/20 04:38:36;;;;;;;14.30;8.40;;;7.20;99.90;;;;;;5108561;28;20396;-76
2022/10/20 04:41:03;;;;;;;15.07;8.20;;;7.10;99.90;;;;;;5110155;28;20526;-76
2022/10/20 04:43:29;;;;;;;14.18;8.70;;;7.10;99.90;;;;;;5109582;28;20412;-76
2022/10/20 04:45:59;;;;;;;12.55;8.50;;;7.10;99.90;;;;;;5116894;28;20395;-76
2022/10/20 04:48:25;;;;;;;13.57;8.63;;;7.10;99.90;;;;;;5109708;27;20439;-77
2022/10/20 04:51:08;;;;;;;12.27;8.48;;;7.10;99.90;;;;;;5108017;28;20450;-76
2022/10/20 04:53:34;;;;;;;13.18;8.63;;;7.10;99.90;;;;;;5108095;28;20473;-76
2022/10/20 04:56:00;;;;;;;13.20;8.63;;;7.10;99.90;;;;;;5108122;28;20407;-76
2022/10/20 04:58:26;;;;;;;12.68;8.70;;;7.10;99.90;;;;;;5119780;28;20431;-76
2022/10/20 05:00:52;;;;;;;12.90;8.90;;;7.10;99.90;;;;;;5112750;28;20795;-76
2022/10/20 05:03:18;;;;;;;13.43;9.03;;;7.10;99.90;;;;;;5108838;27;20411;-76
2022/10/20 05:05:47;;;;;;;14.10;9.00;;;7.10;99.90;;;;;;5107923;28;20404;-76
2022/10/20 05:08:13;;;;;;;13.70;9.27;;;7.10;99.90;;;;;;5108167;28;20400;-76
2022/10/20 05:10:39;;;;;;;16.98;9.98;;;7.10;99.90;;;;;;5109093;28;20415;-77
2022/10/20 05:13:05;;;;;;;15.07;9.53;;;7.10;99.90;;;;;;5111130;28;20397;-76
2022/10/20 05:15:30;;;;;;;16.70;10.23;;;7.00;99.90;;;;;;5114890;27;20491;-76
2022/10/20 05:17:57;;;;;;;13.23;9.48;;;7.00;99.90;;;;;;5107885;28;20411;-76
2022/10/20 05:20:22;;;;;;;16.13;10.10;;;7.00;99.90;;;;;;5108253;28;20425;-76
2022/10/20 05:22:48;;;;;;;16.43;9.97;;;7.00;99.90;;;;;;5110733;28;20408;-76
2022/10/20 05:25:13;;;;;;;16.25;10.10;;;7.00;99.90;;;;;;5112134;28;20400;-76
2022/10/20 05:27:39;;;;;;;15.60;10.30;;;7.00;99.90;;;;;;5111459;28;20439;-76
2022/10/20 05:30:05;;;;;;;16.40;10.80;;;7.00;99.90;;;;;;5111649;28;20400;-76
2022/10/20 05:32:31;;;;;;;14.77;10.35;;;7.00;99.90;;;;;;5111609;28;20396;-76
2022/10/20 05:34:56;;;;;;;15.17;9.83;;;6.90;99.90;;;;;;5111583;28;20753;-76
2022/10/20 05:37:22;;;;;;;14.07;10.13;;;6.90;99.90;;;;;;5108229;28;20529;-76
2022/10/20 05:39:47;;;;;;;16.27;10.80;;;6.90;99.90;;;;;;5109406;28;20918;-76
2022/10/20 05:42:13;;;;;;;16.70;10.93;;;6.90;99.90;;;;;;5110167;27;20889;-76
2022/10/20 05:44:38;;;;;;;16.87;10.87;;;6.90;99.90;;;;;;5110533;28;20400;-76
2022/10/20 05:47:04;;;;;;;18.60;11.30;;;6.90;99.90;;;;;;5110219;28;20500;-76
2022/10/20 05:49:30;;;;;;;16.10;11.17;;;6.90;99.90;;;;;;5110813;28;20404;-77
2022/10/20 05:51:55;;;;;;;19.17;11.57;;;6.90;99.90;;;;;;5110958;28;20517;-75
2022/10/20 05:54:21;;;;;;;17.50;11.05;;;6.90;99.90;;;;;;5121732;27;20399;-74
2022/10/20 05:56:47;;;;;;;16.87;11.40;;;6.90;99.90;;;;;;5100905;27;20429;-76
2022/10/20 05:59:12;;;;;;;17.38;11.23;;;6.90;99.90;;;;;;5115933;27;20437;-71
2022/10/20 06:01:46;;;;;;;17.05;10.82;;;6.90;99.90;;;;;;5105989;28;20803;-76
2022/10/20 06:04:14;;;;;;;15.45;10.88;;;6.90;99.90;;;;;;5110593;28;20396;-76
2022/10/20 06:06:39;;;;;;;17.92;11.15;;;6.90;99.90;;;;;;5109407;28;20434;-76
2022/10/20 06:09:07;;;;;;;19.27;11.37;;;6.90;99.90;;;;;;5111380;28;20802;-76
2022/10/20 06:11:33;;;;;;;17.48;11.68;;;6.90;99.90;;;;;;5110211;28;20407;-76
2022/10/20 06:13:59;;;;;;;17.95;11.55;;;6.90;99.90;;;;;;5109102;28;20399;-76
2022/10/20 06:16:26;;;;;;;17.70;12.15;;;6.90;99.90;;;;;;5109120;28;20419;-76
2022/10/20 06:18:52;;;;;;;18.75;11.80;;;6.90;99.90;;;;;;5109543;28;20470;-76
2022/10/20 06:21:23;;;;;;;15.43;11.33;;;6.90;99.90;;;;;;5110222;27;20396;-76
2022/10/20 06:23:49;;;;;;;17.73;11.93;;;6.90;99.90;;;;;;5109361;28;20743;-76
2022/10/20 06:26:20;;;;;;;17.13;11.73;;;6.90;99.90;;;;;;5109023;28;20478;-76
2022/10/20 06:28:48;;;;;;;16.42;11.48;;;6.90;99.90;;;;;;5109169;28;21172;-76
2022/10/20 06:31:17;;;;;;;19.15;11.60;;;6.90;99.90;;;;;;5108773;27;20415;-76
2022/10/20 06:33:43;;;;;;;17.67;11.40;;;6.90;99.90;;;;;;5107924;28;20404;-75
2022/10/20 06:36:09;;;;;;;17.02;11.02;;;6.90;99.90;;;;;;5107770;28;20412;-76
2022/10/20 06:38:35;;;;;;;16.55;11.07;;;6.90;99.90;;;;;;5109782;28;20400;-75
2022/10/20 06:41:05;;;;;;;17.85;11.43;;;7.00;99.90;;;;;;5109404;28;20473;-75
2022/10/20 06:43:31;;;;;;;15.30;10.85;;;7.00;99.90;;;;;;5108628;28;20411;-75
2022/10/20 06:45:58;;;;;;;15.20;10.80;;;7.00;99.90;;;;;;5108958;28;20408;-76
2022/10/20 06:48:25;;;;;;;16.25;10.52;;;7.00;99.90;;;;;;5079718;28;20415;-76
2022/10/20 06:50:56;;;;;;;17.08;10.38;;;7.10;99.90;;;;;;5108870;27;20761;-76
2022/10/20 06:53:22;;;;;;;16.20;10.38;;;7.10;99.90;;;;;;5109277;28;20587;-76
2022/10/20 06:55:59;;;;;;;15.73;10.20;;;7.10;99.90;;;;;;5108541;28;20491;-75
2022/10/20 06:58:25;;;;;;;18.52;11.13;;;7.20;99.90;;;;;;5107929;28;20480;-76
2022/10/20 07:01:02;;;;;;;15.95;10.05;;;7.20;99.90;;;;;;5109631;28;20503;-76
2022/10/20 07:03:28;;;;;;;18.80;10.57;;;7.20;99.90;;;;;;5103391;28;20433;-76
2022/10/20 07:05:55;;;;;;;15.68;10.13;;;7.30;99.90;;;;;;5110415;27;20396;-76
2022/10/20 07:08:20;;;;;;;15.52;9.95;;;7.30;99.90;;;;;;5109001;28;20998;-76
2022/10/20 07:10:46;;;;;;;17.50;10.40;;;7.30;99.90;;;;;;5108136;28;20436;-76
2022/10/20 07:13:12;;;;;;;12.73;9.47;;;7.40;99.90;;;;;;5108076;28;20747;-76
2022/10/20 07:15:37;;;;;;;15.35;10.10;;;7.40;99.90;;;;;;5108727;28;20427;-76
2022/10/20 07:18:03;;;;;;;12.87;8.83;;;7.40;99.90;;;;;;5109036;28;20400;-76
2022/10/20 07:20:28;;;;;;;13.73;8.70;;;7.40;99.90;;;;;;5091172;28;20432;-76
2022/10/20 07:22:54;;;;;;;13.70;9.07;;;7.50;99.90;;;;;;5108315;28;20408;-76
2022/10/20 07:25:21;;;;;;;16.70;8.90;;;7.50;99.90;;;;;;5107637;28;20970;-76
2022/10/20 07:27:47;;;;;;;16.50;9.00;;;7.50;99.90;;;;;;5091025;28;20404;-76
2022/10/20 07:30:13;;;;;;;11.77;7.97;;;7.60;99.90;;;;;;5107314;28;20416;-76
2022/10/20 07:32:38;;;;;;;14.23;9.10;;;7.60;99.90;;;;;;5109287;28;20808;-76
2022/10/20 07:35:04;;;;;;;13.07;8.77;;;7.60;99.90;;;;;;5114641;27;20403;-75
2022/10/20 07:37:30;;;;;;;13.70;8.60;;;7.60;99.90;;;;;;5108905;28;20412;-76
2022/10/20 07:39:56;;;;;;;12.10;8.45;;;7.70;99.90;;;;;;5107114;28;20477;-76
2022/10/20 07:42:21;;;;;;;12.73;8.13;;;7.70;99.90;;;;;;5111343;27;20398;-76
2022/10/20 07:44:47;;;;;;;11.00;8.27;;;7.70;99.90;;;;;;5113933;27;20491;-75
2022/10/20 07:47:12;;;;;;;10.50;8.20;;;7.80;99.90;;;;;;5107493;28;20487;-75
2022/10/20 07:49:38;;;;;;;13.52;8.52;;;7.80;99.90;;;;;;5106985;28;20431;-75
2022/10/20 07:52:04;;;;;;;14.77;8.97;;;7.80;99.90;;;;;;5107322;28;20829;-75
2022/10/20 07:54:30;;;;;;;10.90;8.32;;;7.80;99.90;;;;;;5109455;27;20406;-75
2022/10/20 07:56:56;;;;;;;12.55;8.07;;;7.80;99.90;;;;;;5108639;28;20453;-76
2022/10/20 07:59:23;;;;;;;13.15;8.30;;;7.80;99.90;;;;;;5116387;27;20838;-76
2022/10/20 08:01:49;;;;;;;13.68;8.45;;;7.80;99.90;;;;;;5108784;28;20397;-76
2022/10/20 08:04:14;;;;;;;11.57;8.50;;;7.80;99.90;;;;;;5106813;28;20396;-76
2022/10/20 08:06:40;;;;;;;11.17;8.20;;;7.90;99.90;;;;;;5106700;28;20404;-76
2022/10/20 08:09:07;;;;;;;10.07;7.90;;;7.90;99.90;;;;;;5108321;28;20408;-76
2022/10/20 08:11:32;;;;;;;10.57;8.48;;;7.90;99.90;;;;;;5104543;28;21112;-75
2022/10/20 08:13:58;;;;;;;12.52;8.43;;;7.90;99.90;;;;;;5107895;27;20495;-76
2022/10/20 08:16:24;;;;;;;11.70;7.70;;;7.90;99.90;;;;;;5107709;28;20397;-76
2022/10/20 08:18:49;;;;;;;11.50;8.07;;;8.00;99.90;;;;;;5108164;28;20483;-76
2022/10/20 08:21:18;;;;;;;12.95;8.40;;;8.00;99.90;;;;;;5108395;28;20801;-76
2022/10/20 08:23:45;;;;;;;10.50;7.82;;;8.00;99.90;;;;;;5118501;27;20398;-75
2022/10/20 08:26:15;;;;;;;13.13;7.88;;;8.10;99.90;;;;;;5106676;28;20453;-76
2022/10/20 08:28:40;;;;;;;12.75;7.78;;;8.10;99.90;;;;;;5107160;28;20404;-75
2022/10/20 08:31:07;;;;;;;11.70;7.27;;;8.20;99.90;;;;;;5108749;28;21099;-76
2022/10/20 08:33:33;;;;;;;10.95;6.90;;;8.20;99.90;;;;;;5108358;28;20747;-75
2022/10/20 08:36:13;;;;;;;11.05;7.40;;;8.30;99.90;;;;;;5109534;28;20419;-76
2022/10/20 08:38:40;;;;;;;11.50;7.13;;;8.30;99.90;;;;;;5106511;28;20400;-76
2022/10/20 08:41:17;;;;;;;12.23;7.85;;;8.40;99.90;;;;;;5108380;28;20449;-75
2022/10/20 08:43:45;;;;;;;9.85;7.30;;;8.50;99.90;;;;;;5112004;28;20396;-76
2022/10/20 08:46:14;;;;;;;11.50;7.40;;;8.60;99.90;;;;;;5107094;28;20901;-76
2022/10/20 08:48:40;;;;;;;11.07;7.17;;;8.70;99.90;;;;;;5107028;28;20404;-76
2022/10/20 08:51:22;;;;;;;11.35;6.93;;;8.80;99.90;;;;;;5106543;28;20408;-75
2022/10/20 08:53:52;;;;;;;10.70;6.83;;;8.80;99.90;;;;;;5108312;28;20408;-76
2022/10/20 08:56:22;;;;;;;13.48;7.32;;;8.90;99.90;;;;;;5110025;28;20437;-75
2022/10/20 08:58:48;;;;;;;8.93;6.60;;;9.00;99.90;;;;;;5112303;28;20778;-76
2022/10/20 09:01:26;;;;;;;9.00;6.25;;;9.20;99.90;;;;;;5111796;28;20396;-75
2022/10/20 09:03:58;;;;;;;9.95;6.82;;;9.30;99.90;;;;;;5112546;28;20889;-76
2022/10/20 09:06:24;;;;;;;13.75;6.63;;;9.50;99.90;;;;;;5109325;28;20423;-76
2022/10/20 09:08:51;;;;;;;9.73;6.18;;;9.70;99.90;;;;;;5110970;28;20762;-76
2022/10/20 09:11:22;;;;;;;8.73;5.93;;;9.90;99.90;;;;;;5111327;28;20401;-76
2022/10/20 09:13:47;;;;;;;8.88;6.00;;;10.10;99.90;;;;;;5111100;28;20415;-76
2022/10/20 09:16:22;;;;;;;9.40;6.47;;;10.10;99.90;;;;;;5112091;28;20941;-76
2022/10/20 09:18:57;;;;;;;8.50;6.03;;;10.30;99.90;;;;;;5111699;28;20404;-76
2022/10/20 09:21:23;;;;;;;9.15;5.82;;;10.50;99.90;;;;;;5106737;27;20780;-76
2022/10/20 09:23:52;;;;;;;9.00;5.65;;;10.80;99.90;;;;;;5116198;27;20404;-76
2022/10/20 09:26:45;;;;;;;8.38;5.95;;;11.10;99.90;;;;;;5093002;28;20487;-76
2022/10/20 09:29:16;;;;;;;12.27;5.88;;;11.40;99.90;;;;;;5111248;28;20412;-76
2022/10/20 09:31:52;;;;;;;9.07;5.60;;;11.60;99.90;;;;;;5111943;28;20408;-76
2022/10/20 09:34:28;;;;;;;8.43;5.25;;;11.70;99.90;;;;;;5111211;28;20403;-76
2022/10/20 09:37:00;;;;;;;12.30;5.38;;;12.00;99.90;;;;;;5109622;28;20499;-76
2022/10/20 09:39:29;;;;;;;6.43;5.00;;;12.30;99.90;;;;;;5111507;28;20495;-76
2022/10/20 09:42:02;;;;;;;7.20;5.18;;;12.40;99.90;;;;;;5117664;27;20404;-76
2022/10/20 09:44:32;;;;;;;8.30;5.10;;;12.60;99.90;;;;;;5111240;28;20489;-76
2022/10/20 09:47:00;;;;;;;7.22;4.63;;;12.90;99.90;;;;;;5111542;27;20396;-76
2022/10/20 09:49:32;;;;;;;8.70;4.90;;;13.20;99.90;;;;;;5107930;28;20408;-76
2022/10/20 09:52:00;;;;;;;7.90;4.85;;;13.50;99.90;;;;;;5110145;28;20408;-76
2022/10/20 09:54:26;;;;;;;8.77;5.23;;;13.40;99.90;;;;;;5111157;28;20397;-76
2022/10/20 09:56:53;;;;;;;7.13;4.95;;;13.20;99.90;;;;;;5111137;28;20396;-76
2022/10/20 09:59:28;;;;;;;7.80;5.05;;;13.00;99.90;;;;;;5104271;28;20831;-76
2022/10/20 10:01:57;;;;;;;8.38;5.10;;;12.70;99.90;;;;;;5111873;27;20407;-76
2022/10/20 10:04:37;;;;;;;8.82;5.45;;;12.60;99.90;;;;;;5110385;28;20409;-76
2022/10/20 10:07:23;;;;;;;7.85;4.95;;;12.40;99.90;;;;;;5111388;27;20405;-76
2022/10/20 10:10:01;;;;;;;8.52;4.97;;;12.40;99.90;;;;;;5111228;28;20400;-76
2022/10/20 10:12:30;;;;;;;8.25;5.18;;;12.30;99.90;;;;;;5110871;28;20389;-76
2022/10/20 10:15:01;;;;;;;7.85;5.40;;;12.20;99.90;;;;;;5110520;28;20404;-76
2022/10/20 10:17:39;;;;;;;11.30;5.80;;;12.20;99.90;;;;;;5111823;27;20412;-76
2022/10/20 10:20:10;;;;;;;8.00;5.43;;;12.10;99.90;;;;;;5109726;28;20451;-76
2022/10/20 10:22:38;;;;;;;7.15;4.95;;;12.10;99.90;;;;;;5118093;27;20405;-76
2022/10/20 10:25:05;;;;;;;5.87;5.17;;;12.00;99.90;;;;;;5109493;28;20499;-76
2022/10/20 10:27:35;;;;;;;7.63;5.00;;;12.00;99.90;;;;;;5092279;28;20411;-76
2022/10/20 10:30:23;;;;;;;8.50;5.60;;;11.90;99.90;;;;;;5105853;28;20400;-76
2022/10/20 10:32:49;;;;;;;7.47;5.18;;;12.00;99.90;;;;;;5110919;28;20762;-76
2022/10/20 10:35:25;;;;;;;7.47;5.20;;;12.10;99.90;;;;;;5109473;27;20400;-76
2022/10/20 10:37:52;;;;;;;7.22;5.00;;;12.00;99.90;;;;;;5109824;28;20420;-76
2022/10/20 10:40:38;;;;;;;10.10;5.38;;;12.10;99.90;;;;;;5110286;28;20429;-76
2022/10/20 10:43:35;;;;;;;8.15;5.13;;;12.20;99.90;;;;;;5109806;28;20727;-76
2022/10/20 10:46:12;;;;;;;7.03;5.30;;;12.30;99.90;;;;;;5109269;28;20409;-76
2022/10/20 10:48:44;;;;;;;6.93;5.13;;;12.40;99.90;;;;;;5109589;28;20511;-76
2022/10/20 10:51:22;;;;;;;7.70;5.30;;;12.40;99.90;;;;;;5109618;28;20404;-76
2022/10/20 10:53:54;;;;;;;8.10;5.80;;;12.40;99.90;;;;;;5108287;28;20487;-76
2022/10/20 10:56:58;;;;;;;8.35;5.10;;;12.40;99.90;;;;;;5109279;28;20465;-77
2022/10/20 10:59:41;;;;;;;8.85;5.18;;;12.50;99.90;;;;;;5074196;28;20948;-76
2022/10/20 11:02:33;;;;;;;8.23;5.43;;;12.50;99.90;;;;;;5108185;28;20420;-76
2022/10/20 11:05:21;;;;;;;7.27;5.50;;;12.50;99.90;;;;;;5091100;28;20482;-76
2022/10/20 11:08:11;;;;;;;7.50;5.85;;;12.60;99.90;;;;;;5104885;28;20473;-76
2022/10/20 11:10:57;;;;;;;8.77;5.72;;;12.60;99.90;;;;;;5108022;28;20420;-76
2022/10/20 11:13:50;;;;;;;7.70;5.28;;;12.60;99.90;;;;;;5110262;27;20763;-76
2022/10/20 11:17:00;;;;;;;9.30;5.70;;;12.70;99.90;;;;;;5110310;27;20408;-76
2022/10/20 11:19:32;;;;;;;9.77;5.95;;;12.80;99.90;;;;;;5104371;28;20432;-76
2022/10/20 11:22:06;;;;;;;10.82;6.07;;;12.80;99.90;;;;;;5109529;28;20407;-76
2022/10/20 11:24:48;;;;;;;7.75;6.05;;;12.80;99.90;;;;;;5096844;28;20396;-76
2022/10/20 11:27:29;;;;;;;8.00;5.75;;;12.80;99.90;;;;;;5108341;28;20443;-76
2022/10/20 11:30:18;;;;;;;10.20;5.85;;;12.90;99.90;;;;;;5108411;28;20505;-76
2022/10/20 11:33:11;;;;;;;9.95;6.15;;;12.80;99.90;;;;;;5096684;28;20415;-76
2022/10/20 11:36:14;;;;;;;7.93;5.68;;;12.90;99.90;;;;;;5099490;28;20500;-76
2022/10/20 11:38:52;;;;;;;8.48;5.82;;;13.00;99.90;;;;;;5087058;27;20416;-76
2022/10/20 11:41:42;;;;;;;9.93;6.22;;;13.20;99.90;;;;;;5109106;28;20411;-76
2022/10/20 11:44:14;;;;;;;8.75;5.90;;;13.50;99.90;;;;;;5097031;28;20397;-76
2022/10/20 11:47:06;;;;;;;8.95;5.88;;;13.50;99.90;;;;;;5107532;28;20932;-76
2022/10/20 11:49:32;;;;;;;8.85;5.93;;;13.70;99.90;;;;;;5104083;28;20474;-76
2022/10/20 11:52:32;;;;;;;9.27;6.13;;;13.80;99.90;;;;;;5120580;27;20436;-76
2022/10/20 11:55:10;;;;;;;8.70;6.73;;;14.00;99.90;;;;;;5107057;28;20443;-76
2022/10/20 11:57:59;;;;;;;8.20;5.97;;;14.10;99.90;;;;;;5108560;28;20440;-76
2022/10/20 12:00:44;;;;;;;11.32;6.32;;;14.10;99.90;;;;;;5107251;28;20428;-76
2022/10/20 12:03:25;;;;;;;11.07;6.30;;;14.20;99.90;;;;;;5108463;28;20411;-76
2022/10/20 12:06:18;;;;;;;8.85;6.47;;;14.20;99.90;;;;;;5108700;28;20453;-76
2022/10/20 12:09:04;;;;;;;8.27;6.05;;;14.30;99.90;;;;;;5108866;28;20400;-76
2022/10/20 12:11:34;;;;;;;12.23;6.40;;;14.40;99.90;;;;;;5115759;27;20404;-76
2022/10/20 12:14:06;;;;;;;7.78;6.00;;;14.40;99.90;;;;;;5106909;28;20412;-76
2022/10/20 12:16:50;;;;;;;10.88;6.75;;;14.20;99.90;;;;;;5108534;28;20943;-76
2022/10/20 12:19:19;;;;;;;9.55;6.53;;;14.10;99.90;;;;;;5090214;28;20439;-76
2022/10/20 12:22:04;;;;;;;8.20;6.13;;;14.00;99.90;;;;;;5108091;28;20751;-76
2022/10/20 12:24:39;;;;;;;9.60;6.80;;;14.00;99.90;;;;;;5086891;28;20421;-75
2022/10/20 12:27:23;;;;;;;10.55;6.80;;;13.80;99.90;;;;;;5105962;28;20841;-76
2022/10/20 12:30:13;;;;;;;9.27;6.60;;;13.80;99.90;;;;;;5106992;28;20447;-76
2022/10/20 12:32:53;;;;;;;11.10;6.93;;;13.70;99.90;;;;;;5088567;28;20447;-75
2022/10/20 12:35:18;;;;;;;11.70;7.20;;;13.60;99.90;;;;;;5119907;27;20430;-76
2022/10/20 12:37:55;;;;;;;10.33;7.00;;;13.60;99.90;;;;;;5110948;28;20924;-76
2022/10/20 12:40:30;;;;;;;10.63;7.20;;;13.60;99.90;;;;;;5109863;28;20424;-76
2022/10/20 12:42:56;;;;;;;9.65;7.30;;;13.50;99.90;;;;;;5113538;27;20439;-76
2022/10/20 12:45:33;;;;;;;10.77;7.10;;;13.50;99.90;;;;;;5094018;28;20408;-76
2022/10/20 12:48:01;;;;;;;11.02;7.63;;;13.40;99.90;;;;;;5112332;27;20404;-76
2022/10/20 12:50:38;;;;;;;9.27;6.93;;;13.40;99.90;;;;;;5109985;28;20389;-76
2022/10/20 12:53:17;;;;;;;10.65;7.60;;;13.40;99.90;;;;;;5112185;28;20404;-76
2022/10/20 12:56:06;;;;;;;11.20;7.50;;;13.30;99.90;;;;;;5112562;28;20454;-76
2022/10/20 12:58:34;;;;;;;10.65;7.38;;;13.30;99.90;;;;;;5097687;28;21039;-76
2022/10/20 13:01:04;;;;;;;11.15;7.97;;;13.30;99.90;;;;;;5110360;28;20520;-76
2022/10/20 13:03:42;;;;;;;10.65;7.80;;;13.30;99.90;;;;;;5110232;28;20419;-76
2022/10/20 13:06:26;;;;;;;11.70;7.43;;;13.30;99.90;;;;;;5110278;28;20419;-76